Time,TemperatureF,DewpointF,PressureIn,WindDirection,WindDirectionDegrees,WindSpeedMPH,WindSpeedGustMPH,Humidity,HourlyPrecipIn,Conditions,Clouds,dailyrainin,SoftwareType,DateUTC
2013-01-07 00:01:00,22.1,20.1,30.40,WSW,257,0.0,0.0,92,0.00,,,0.00,Wunderground v.1.15,2013-01-07 06:01:00,
2013-01-07 00:06:00,22.1,20.1,30.40,WSW,257,0.0,0.0,92,0.00,,,0.00,Wunderground v.1.15,2013-01-07 06:06:00,
2013-01-07 00:11:00,22.0,20.0,30.40,WSW,257,0.0,0.0,92,0.00,,,0.00,Wunderground v.1.15,2013-01-07 06:11:00,
2013-01-07 00:16:00,21.7,19.7,30.40,WSW,257,0.0,0.0,92,0.00,,,0.00,Wunderground v.1.15,2013-01-07 06:16:00,
2013-01-07 00:21:00,21.7,20.0,30.39,WSW,257,0.0,0.0,93,0.00,,,0.00,Wunderground v.1.15,2013-01-07 06:21:00,
2013-01-07 00:27:00,21.7,20.0,30.39,WSW,241,1.0,1.0,93,0.00,,,0.00,Wunderground v.1.15,2013-01-07 06:27:00,
2013-01-07 00:32:00,21.7,20.0,30.40,WSW,242,1.0,1.0,93,0.00,,,0.00,Wunderground v.1.15,2013-01-07 06:32:00,
2013-01-07 00:37:00,21.5,19.5,30.39,West,259,0.0,1.0,92,0.00,,,0.00,Wunderground v.1.15,2013-01-07 06:37:00,
2013-01-07 00:42:00,21.3,19.3,30.39,West,259,0.0,0.0,92,0.00,,,0.00,Wunderground v.1.15,2013-01-07 06:42:00,
2013-01-07 00:47:00,21.1,19.1,30.39,West,259,0.0,0.0,92,0.00,,,0.00,Wunderground v.1.15,2013-01-07 06:47:00,
2013-01-07 00:53:00,21.1,19.4,30.39,West,259,0.0,0.0,93,0.00,,,0.00,Wunderground v.1.15,2013-01-07 06:53:00,
2013-01-07 00:58:00,21.0,19.3,30.40,WSW,252,0.0,0.0,93,0.00,,,0.00,Wunderground v.1.15,2013-01-07 06:58:00,
2013-01-07 01:03:00,20.9,19.2,30.40,WSW,252,0.0,0.0,93,0.00,,,0.00,Wunderground v.1.15,2013-01-07 07:03:00,
2013-01-07 01:08:00,21.0,19.3,30.40,WSW,252,0.0,0.0,93,0.00,,,0.00,Wunderground v.1.15,2013-01-07 07:08:00,
2013-01-07 01:13:00,21.0,19.3,30.40,WSW,250,0.0,0.0,93,0.00,,,0.00,Wunderground v.1.15,2013-01-07 07:13:00,
2013-01-07 01:19:00,20.8,19.1,30.39,WSW,250,0.0,0.0,93,0.00,,,0.00,Wunderground v.1.15,2013-01-07 07:19:00,
2013-01-07 01:24:00,20.6,18.9,30.39,WSW,250,0.0,0.0,93,0.00,,,0.00,Wunderground v.1.15,2013-01-07 07:24:00,
2013-01-07 01:29:00,20.6,18.9,30.40,WSW,250,0.0,0.0,93,0.00,,,0.00,Wunderground v.1.15,2013-01-07 07:29:00,
2013-01-07 01:34:00,20.5,18.8,30.40,WSW,250,0.0,0.0,93,0.00,,,0.00,Wunderground v.1.15,2013-01-07 07:34:00,
2013-01-07 01:39:00,20.3,18.6,30.40,WSW,250,0.0,0.0,93,0.00,,,0.00,Wunderground v.1.15,2013-01-07 07:39:00,
2013-01-07 01:45:00,20.0,18.3,30.40,WSW,250,0.0,0.0,93,0.00,,,0.00,Wunderground v.1.15,2013-01-07 07:45:00,
2013-01-07 01:50:00,20.0,18.6,30.40,WSW,250,0.0,0.0,94,0.00,,,0.00,Wunderground v.1.15,2013-01-07 07:50:00,
2013-01-07 01:55:00,20.0,18.6,30.39,WSW,250,0.0,0.0,94,0.00,,,0.00,Wunderground v.1.15,2013-01-07 07:55:00,
2013-01-07 02:00:00,20.0,18.6,30.39,WSW,250,0.0,0.0,94,0.00,,,0.00,Wunderground v.1.15,2013-01-07 08:00:00,
2013-01-07 02:05:00,20.3,18.8,30.39,WSW,250,0.0,0.0,94,0.00,,,0.00,Wunderground v.1.15,2013-01-07 08:05:00,
2013-01-07 02:10:00,20.5,19.0,30.39,WSW,250,0.0,0.0,94,0.00,,,0.00,Wunderground v.1.15,2013-01-07 08:10:00,
2013-01-07 02:15:00,20.5,19.0,30.39,SE,141,0.0,0.0,94,0.00,,,0.00,Wunderground v.1.15,2013-01-07 08:15:00,
2013-01-07 02:20:00,20.6,19.1,30.39,SE,141,0.0,0.0,94,0.00,,,0.00,Wunderground v.1.15,2013-01-07 08:20:00,
2013-01-07 02:25:00,20.6,19.1,30.39,SE,141,0.0,0.0,94,0.00,,,0.00,Wunderground v.1.15,2013-01-07 08:25:00,
2013-01-07 02:30:00,20.4,18.9,30.38,SE,141,0.0,0.0,94,0.00,,,0.00,Wunderground v.1.15,2013-01-07 08:30:00,
2013-01-07 02:35:00,20.2,18.8,30.38,SE,141,0.0,0.0,94,0.00,,,0.00,Wunderground v.1.15,2013-01-07 08:35:00,
2013-01-07 02:40:00,20.3,18.8,30.38,SE,141,0.0,0.0,94,0.00,,,0.00,Wunderground v.1.15,2013-01-07 08:40:00,
2013-01-07 02:45:00,20.4,19.2,30.38,SE,141,0.0,0.0,95,0.00,,,0.00,Wunderground v.1.15,2013-01-07 08:45:00,
2013-01-07 02:50:00,20.3,18.8,30.38,SE,141,0.0,0.0,94,0.00,,,0.00,Wunderground v.1.15,2013-01-07 08:50:00,
2013-01-07 02:55:00,20.4,19.2,30.39,SE,141,0.0,0.0,95,0.00,,,0.00,Wunderground v.1.15,2013-01-07 08:55:00,
2013-01-07 03:00:00,20.3,18.8,30.38,SE,141,0.0,0.0,94,0.00,,,0.00,Wunderground v.1.15,2013-01-07 09:00:00,
2013-01-07 03:05:00,20.4,19.2,30.38,SE,141,0.0,1.0,95,0.00,,,0.00,Wunderground v.1.15,2013-01-07 09:05:00,
2013-01-07 03:10:00,20.6,19.4,30.38,SE,141,0.0,0.0,95,0.00,,,0.00,Wunderground v.1.15,2013-01-07 09:10:00,
2013-01-07 03:15:00,20.6,19.1,30.38,SE,141,0.0,0.0,94,0.00,,,0.00,Wunderground v.1.15,2013-01-07 09:15:00,
2013-01-07 03:20:00,20.6,19.1,30.37,SE,141,0.0,0.0,94,0.00,,,0.00,Wunderground v.1.15,2013-01-07 09:20:00,
2013-01-07 03:25:00,20.3,18.8,30.37,WSW,238,0.0,0.0,94,0.00,,,0.00,Wunderground v.1.15,2013-01-07 09:25:00,
2013-01-07 03:30:00,20.0,18.6,30.37,WSW,248,0.0,2.0,94,0.00,,,0.00,Wunderground v.1.15,2013-01-07 09:30:00,
2013-01-07 03:35:00,19.7,18.0,30.37,SSE,167,0.0,2.0,93,0.00,,,0.00,Wunderground v.1.15,2013-01-07 09:35:00,
2013-01-07 03:40:00,19.5,17.8,30.37,SSE,167,0.0,0.0,93,0.00,,,0.00,Wunderground v.1.15,2013-01-07 09:40:00,
2013-01-07 03:45:00,19.4,18.0,30.37,SW,214,0.0,1.0,94,0.00,,,0.00,Wunderground v.1.15,2013-01-07 09:45:00,
2013-01-07 03:51:00,19.3,17.6,30.36,SW,231,1.0,2.0,93,0.00,,,0.00,Wunderground v.1.15,2013-01-07 09:51:00,
2013-01-07 03:56:00,19.3,17.9,30.36,SW,232,0.0,2.0,94,0.00,,,0.00,Wunderground v.1.15,2013-01-07 09:56:00,
2013-01-07 04:01:00,19.3,17.9,30.36,SW,232,0.0,0.0,94,0.00,,,0.00,Wunderground v.1.15,2013-01-07 10:01:00,
2013-01-07 04:06:00,19.3,17.9,30.36,SW,232,0.0,0.0,94,0.00,,,0.00,Wunderground v.1.15,2013-01-07 10:06:00,
2013-01-07 04:11:00,19.1,17.7,30.36,South,190,0.0,0.0,94,0.00,,,0.00,Wunderground v.1.15,2013-01-07 10:11:00,
2013-01-07 04:16:00,19.1,17.7,30.36,WSW,240,0.0,0.0,94,0.00,,,0.00,Wunderground v.1.15,2013-01-07 10:16:00,
2013-01-07 04:21:00,18.9,17.2,30.36,WSW,240,0.0,0.0,93,0.00,,,0.00,Wunderground v.1.15,2013-01-07 10:21:00,
2013-01-07 04:26:00,18.7,17.0,30.36,WSW,240,0.0,0.0,93,0.00,,,0.00,Wunderground v.1.15,2013-01-07 10:26:00,
2013-01-07 04:31:00,18.6,16.9,30.36,WSW,240,0.0,0.0,93,0.00,,,0.00,Wunderground v.1.15,2013-01-07 10:31:00,
2013-01-07 04:36:00,18.7,17.3,30.36,WSW,240,0.0,0.0,94,0.00,,,0.00,Wunderground v.1.15,2013-01-07 10:36:00,
2013-01-07 04:41:00,18.9,17.5,30.36,WSW,240,0.0,0.0,94,0.00,,,0.00,Wunderground v.1.15,2013-01-07 10:41:00,
2013-01-07 04:46:00,18.8,17.4,30.36,WSW,240,0.0,0.0,94,0.00,,,0.00,Wunderground v.1.15,2013-01-07 10:46:00,
2013-01-07 04:51:00,18.8,17.4,30.36,WSW,240,0.0,0.0,94,0.00,,,0.00,Wunderground v.1.15,2013-01-07 10:51:00,
2013-01-07 04:56:00,18.7,17.3,30.36,WSW,240,0.0,0.0,94,0.00,,,0.00,Wunderground v.1.15,2013-01-07 10:56:00,
2013-01-07 05:01:00,18.6,17.2,30.36,WSW,240,0.0,0.0,94,0.00,,,0.00,Wunderground v.1.15,2013-01-07 11:01:00,
2013-01-07 05:06:00,18.6,17.2,30.36,WSW,240,0.0,0.0,94,0.00,,,0.00,Wunderground v.1.15,2013-01-07 11:06:00,
2013-01-07 05:11:00,18.5,17.1,30.37,WSW,240,0.0,0.0,94,0.00,,,0.00,Wunderground v.1.15,2013-01-07 11:11:00,
2013-01-07 05:16:00,18.5,17.1,30.37,WSW,240,0.0,0.0,94,0.00,,,0.00,Wunderground v.1.15,2013-01-07 11:16:00,
2013-01-07 05:21:00,18.5,17.1,30.37,WSW,240,0.0,0.0,94,0.00,,,0.00,Wunderground v.1.15,2013-01-07 11:21:00,
2013-01-07 05:26:00,18.5,17.1,30.37,WSW,240,0.0,0.0,94,0.00,,,0.00,Wunderground v.1.15,2013-01-07 11:26:00,
2013-01-07 05:31:00,18.4,17.0,30.37,WSW,240,0.0,0.0,94,0.00,,,0.00,Wunderground v.1.15,2013-01-07 11:31:00,
2013-01-07 05:36:00,18.3,16.9,30.37,WSW,240,0.0,0.0,94,0.00,,,0.00,Wunderground v.1.15,2013-01-07 11:36:00,
2013-01-07 05:41:00,18.3,16.9,30.36,WSW,240,0.0,0.0,94,0.00,,,0.00,Wunderground v.1.15,2013-01-07 11:41:00,
2013-01-07 05:46:00,18.3,16.9,30.37,WSW,240,0.0,0.0,94,0.00,,,0.00,Wunderground v.1.15,2013-01-07 11:46:00,
2013-01-07 05:51:00,18.3,16.9,30.37,WSW,240,0.0,0.0,94,0.00,,,0.00,Wunderground v.1.15,2013-01-07 11:51:00,
2013-01-07 05:56:00,18.2,16.8,30.37,WSW,240,0.0,0.0,94,0.00,,,0.00,Wunderground v.1.15,2013-01-07 11:56:00,
2013-01-07 06:01:00,18.1,16.7,30.37,WSW,240,0.0,0.0,94,0.00,,,0.00,Wunderground v.1.15,2013-01-07 12:01:00,
2013-01-07 06:06:00,17.9,16.5,30.37,WSW,240,0.0,0.0,94,0.00,,,0.00,Wunderground v.1.15,2013-01-07 12:06:00,
2013-01-07 06:11:00,17.8,16.4,30.37,WSW,240,0.0,0.0,94,0.00,,,0.00,Wunderground v.1.15,2013-01-07 12:11:00,
2013-01-07 06:16:00,17.7,16.3,30.38,WSW,240,0.0,0.0,94,0.00,,,0.00,Wunderground v.1.15,2013-01-07 12:16:00,
2013-01-07 06:21:00,17.7,16.3,30.38,WSW,240,0.0,0.0,94,0.00,,,0.00,Wunderground v.1.15,2013-01-07 12:21:00,
2013-01-07 06:26:00,17.6,16.2,30.37,WSW,240,0.0,0.0,94,0.00,,,0.00,Wunderground v.1.15,2013-01-07 12:26:00,
2013-01-07 06:31:00,17.4,16.0,30.38,WSW,240,0.0,0.0,94,0.00,,,0.00,Wunderground v.1.15,2013-01-07 12:31:00,
2013-01-07 06:36:00,17.5,16.1,30.38,WSW,240,0.0,0.0,94,0.00,,,0.00,Wunderground v.1.15,2013-01-07 12:36:00,
2013-01-07 06:41:00,17.5,16.1,30.38,WSW,240,0.0,0.0,94,0.00,,,0.00,Wunderground v.1.15,2013-01-07 12:41:00,
2013-01-07 06:46:00,17.4,16.0,30.38,WSW,240,0.0,0.0,94,0.00,,,0.00,Wunderground v.1.15,2013-01-07 12:46:00,
2013-01-07 06:51:00,17.4,16.0,30.38,WSW,240,0.0,0.0,94,0.00,,,0.00,Wunderground v.1.15,2013-01-07 12:51:00,
2013-01-07 06:56:00,17.4,16.0,30.38,WSW,240,0.0,0.0,94,0.00,,,0.00,Wunderground v.1.15,2013-01-07 12:56:00,
2013-01-07 07:01:00,17.3,15.6,30.38,WSW,240,0.0,0.0,93,0.00,,,0.00,Wunderground v.1.15,2013-01-07 13:01:00,
2013-01-07 07:06:00,17.2,15.8,30.38,WSW,240,0.0,0.0,94,0.00,,,0.00,Wunderground v.1.15,2013-01-07 13:06:00,
2013-01-07 07:11:00,17.2,15.8,30.39,WSW,240,0.0,0.0,94,0.00,,,0.00,Wunderground v.1.15,2013-01-07 13:11:00,
2013-01-07 07:16:00,17.2,15.8,30.39,WSW,240,0.0,0.0,94,0.00,,,0.00,Wunderground v.1.15,2013-01-07 13:16:00,
2013-01-07 07:21:00,17.1,15.7,30.38,WSW,240,0.0,0.0,94,0.00,,,0.00,Wunderground v.1.15,2013-01-07 13:21:00,
2013-01-07 07:26:00,17.3,15.9,30.39,WSW,240,0.0,0.0,94,0.00,,,0.00,Wunderground v.1.15,2013-01-07 13:26:00,
2013-01-07 07:31:00,17.3,15.9,30.39,WSW,240,0.0,0.0,94,0.00,,,0.00,Wunderground v.1.15,2013-01-07 13:31:00,
2013-01-07 07:36:00,17.3,15.9,30.39,WSW,240,0.0,0.0,94,0.00,,,0.00,Wunderground v.1.15,2013-01-07 13:36:00,
2013-01-07 07:41:00,17.3,15.9,30.39,WSW,240,0.0,0.0,94,0.00,,,0.00,Wunderground v.1.15,2013-01-07 13:41:00,
2013-01-07 07:46:00,17.3,15.9,30.39,WSW,240,0.0,0.0,94,0.00,,,0.00,Wunderground v.1.15,2013-01-07 13:46:00,
2013-01-07 07:51:00,17.4,16.0,30.39,WSW,240,0.0,0.0,94,0.00,,,0.00,Wunderground v.1.15,2013-01-07 13:51:00,
2013-01-07 07:56:00,17.5,16.1,30.39,WSW,240,0.0,0.0,94,0.00,,,0.00,Wunderground v.1.15,2013-01-07 13:56:00,
2013-01-07 08:01:00,17.5,16.1,30.39,WSW,240,0.0,0.0,94,0.00,,,0.00,Wunderground v.1.15,2013-01-07 14:01:00,
2013-01-07 08:06:00,17.6,16.2,30.39,WSW,240,0.0,3.0,94,0.00,,,0.00,Wunderground v.1.15,2013-01-07 14:06:00,
2013-01-07 08:11:00,17.8,16.4,30.39,WSW,240,0.0,1.0,94,0.00,,,0.00,Wunderground v.1.15,2013-01-07 14:11:00,
2013-01-07 08:16:00,17.9,16.5,30.39,WSW,240,0.0,1.0,94,0.00,,,0.00,Wunderground v.1.15,2013-01-07 14:16:00,
2013-01-07 08:21:00,18.2,16.8,30.39,WSW,240,0.0,0.0,94,0.00,,,0.00,Wunderground v.1.15,2013-01-07 14:21:00,
2013-01-07 08:26:00,18.4,17.0,30.39,WSW,240,0.0,0.0,94,0.00,,,0.00,Wunderground v.1.15,2013-01-07 14:26:00,
2013-01-07 08:31:00,18.7,17.3,30.40,WSW,240,0.0,0.0,94,0.00,,,0.00,Wunderground v.1.15,2013-01-07 14:31:00,
2013-01-07 08:36:00,19.2,17.8,30.40,WSW,240,0.0,0.0,94,0.00,,,0.00,Wunderground v.1.15,2013-01-07 14:36:00,
2013-01-07 08:41:00,19.4,18.0,30.40,WSW,240,0.0,0.0,94,0.00,,,0.00,Wunderground v.1.15,2013-01-07 14:41:00,
2013-01-07 08:46:00,19.8,18.4,30.39,SE,136,0.0,0.0,94,0.00,,,0.00,Wunderground v.1.15,2013-01-07 14:46:00,
2013-01-07 08:51:00,20.4,18.9,30.39,SE,132,0.0,1.0,94,0.00,,,0.00,Wunderground v.1.15,2013-01-07 14:51:00,
2013-01-07 08:56:00,20.8,19.3,30.39,SE,132,0.0,1.0,94,0.00,,,0.00,Wunderground v.1.15,2013-01-07 14:56:00,
2013-01-07 09:01:00,21.1,19.6,30.39,SE,132,0.0,0.0,94,0.00,,,0.00,Wunderground v.1.15,2013-01-07 15:01:00,
2013-01-07 09:06:00,21.4,19.9,30.39,SE,132,0.0,0.0,94,0.00,,,0.00,Wunderground v.1.15,2013-01-07 15:06:00,
2013-01-07 09:11:00,21.9,20.7,30.39,SE,132,0.0,0.0,95,0.00,,,0.00,Wunderground v.1.15,2013-01-07 15:11:00,
2013-01-07 09:16:00,22.3,20.8,30.39,SSW,196,0.0,2.0,94,0.00,,,0.00,Wunderground v.1.15,2013-01-07 15:16:00,
2013-01-07 09:21:00,22.8,21.6,30.40,WNW,289,0.0,0.0,95,0.00,,,0.00,Wunderground v.1.15,2013-01-07 15:21:00,
2013-01-07 09:26:00,23.3,22.1,30.39,SE,139,0.0,2.0,95,0.00,,,0.00,Wunderground v.1.15,2013-01-07 15:26:00,
2013-01-07 09:31:00,23.9,22.4,30.39,SSE,153,1.0,1.0,94,0.00,,,0.00,Wunderground v.1.15,2013-01-07 15:31:00,
2013-01-07 09:36:00,24.4,22.9,30.39,SE,131,0.0,2.0,94,0.00,,,0.00,Wunderground v.1.15,2013-01-07 15:36:00,
2013-01-07 09:41:00,24.9,23.4,30.39,SE,131,0.0,0.0,94,0.00,,,0.00,Wunderground v.1.15,2013-01-07 15:41:00,
2013-01-07 09:46:00,25.4,23.9,30.39,SE,131,0.0,0.0,94,0.00,,,0.00,Wunderground v.1.15,2013-01-07 15:46:00,
2013-01-07 09:51:00,25.8,24.3,30.38,SE,142,2.0,2.0,94,0.00,,,0.00,Wunderground v.1.15,2013-01-07 15:51:00,
2013-01-07 09:56:00,26.4,24.9,30.38,SE,130,1.0,2.0,94,0.00,,,0.00,Wunderground v.1.15,2013-01-07 15:56:00,
2013-01-07 10:01:00,26.9,25.1,30.38,SE,137,0.0,1.0,93,0.00,,,0.00,Wunderground v.1.15,2013-01-07 16:01:00,
2013-01-07 10:06:00,27.5,25.7,30.38,SE,136,0.0,1.0,93,0.00,,,0.00,Wunderground v.1.15,2013-01-07 16:06:00,
2013-01-07 10:11:00,28.2,26.2,30.37,SE,144,1.0,2.0,92,0.00,,,0.00,Wunderground v.1.15,2013-01-07 16:11:00,
2013-01-07 10:16:00,28.8,26.5,30.37,ESE,117,1.0,3.0,91,0.00,,,0.00,Wunderground v.1.15,2013-01-07 16:16:00,
2013-01-07 10:21:00,29.6,27.0,30.37,SSE,166,0.0,1.0,90,0.00,,,0.00,Wunderground v.1.15,2013-01-07 16:21:00,
2013-01-07 10:26:00,30.1,27.3,30.37,SW,225,0.0,1.0,89,0.00,,,0.00,Wunderground v.1.15,2013-01-07 16:26:00,
2013-01-07 10:31:00,30.8,27.9,30.38,SW,221,0.0,1.0,89,0.00,,,0.00,Wunderground v.1.15,2013-01-07 16:31:00,
2013-01-07 10:36:00,31.3,27.9,30.37,SSE,148,1.0,2.0,87,0.00,,,0.00,Wunderground v.1.15,2013-01-07 16:36:00,
2013-01-07 10:41:00,32.1,28.1,30.37,ESE,115,3.0,3.0,85,0.00,,,0.00,Wunderground v.1.15,2013-01-07 16:41:00,
2013-01-07 10:46:00,32.8,28.5,30.37,SE,143,1.0,4.0,84,0.00,,,0.00,Wunderground v.1.15,2013-01-07 16:46:00,
2013-01-07 10:51:00,33.5,28.6,30.36,SE,134,1.0,2.0,82,0.00,,,0.00,Wunderground v.1.15,2013-01-07 16:51:00,
2013-01-07 10:56:00,34.1,28.9,30.36,SE,134,2.0,3.0,81,0.00,,,0.00,Wunderground v.1.15,2013-01-07 16:56:00,
2013-01-07 11:01:00,34.8,29.3,30.36,SE,127,0.0,2.0,80,0.00,,,0.00,Wunderground v.1.15,2013-01-07 17:01:00,
2013-01-07 11:06:00,35.4,29.5,30.35,ESE,122,0.0,2.0,79,0.00,,,0.00,Wunderground v.1.15,2013-01-07 17:06:00,
2013-01-07 11:11:00,36.2,30.0,30.35,ESE,123,2.0,2.0,78,0.00,,,0.00,Wunderground v.1.15,2013-01-07 17:11:00,
2013-01-07 11:16:00,36.9,29.7,30.34,SE,128,3.0,3.0,75,0.00,,,0.00,Wunderground v.1.15,2013-01-07 17:16:00,
2013-01-07 11:21:00,37.9,30.4,30.33,ESE,123,2.0,3.0,74,0.00,,,0.00,Wunderground v.1.15,2013-01-07 17:21:00,
2013-01-07 11:26:00,38.9,30.6,30.34,SE,128,1.0,3.0,72,0.00,,,0.00,Wunderground v.1.15,2013-01-07 17:26:00,
2013-01-07 11:31:00,39.6,31.3,30.33,SE,129,0.0,1.0,72,0.00,,,0.00,Wunderground v.1.15,2013-01-07 17:31:00,
2013-01-07 11:36:00,40.5,31.1,30.33,ENE,71,0.0,1.0,69,0.00,,,0.00,Wunderground v.1.15,2013-01-07 17:36:00,
2013-01-07 11:41:00,41.5,31.7,30.32,ENE,62,0.0,0.0,68,0.00,,,0.00,Wunderground v.1.15,2013-01-07 17:41:00,
2013-01-07 11:46:00,42.5,31.9,30.32,North,350,1.0,2.0,66,0.00,,,0.00,Wunderground v.1.15,2013-01-07 17:46:00,
2013-01-07 11:51:00,43.3,31.9,30.31,ENE,58,0.0,2.0,64,0.00,,,0.00,Wunderground v.1.15,2013-01-07 17:51:00,
2013-01-07 11:56:00,44.1,31.5,30.31,WSW,240,1.0,2.0,61,0.00,,,0.00,Wunderground v.1.15,2013-01-07 17:56:00,
2013-01-07 12:01:00,45.8,31.0,30.31,NNW,336,2.0,5.0,56,0.00,,,0.00,Wunderground v.1.15,2013-01-07 18:01:00,
2013-01-07 12:06:00,46.6,31.3,30.30,WNW,285,5.0,7.0,55,0.00,,,0.00,Wunderground v.1.15,2013-01-07 18:06:00,
2013-01-07 12:11:00,47.3,31.0,30.30,WNW,290,3.0,7.0,53,0.00,,,0.00,Wunderground v.1.15,2013-01-07 18:11:00,
2013-01-07 12:16:00,48.2,30.4,30.29,WSW,240,2.0,7.0,50,0.00,,,0.00,Wunderground v.1.15,2013-01-07 18:16:00,
2013-01-07 12:21:00,48.6,30.8,30.29,NW,317,3.0,5.0,50,0.00,,,0.00,Wunderground v.1.15,2013-01-07 18:21:00,
2013-01-07 12:26:00,49.1,30.2,30.28,West,262,5.0,6.0,48,0.00,,,0.00,Wunderground v.1.15,2013-01-07 18:26:00,
2013-01-07 12:31:00,49.1,29.7,30.28,NW,319,6.0,7.0,47,0.00,,,0.00,Wunderground v.1.15,2013-01-07 18:31:00,
2013-01-07 12:36:00,49.2,29.3,30.28,WNW,287,4.0,8.0,46,0.00,,,0.00,Wunderground v.1.15,2013-01-07 18:36:00,
2013-01-07 12:41:00,49.7,30.8,30.28,West,266,1.0,6.0,48,0.00,,,0.00,Wunderground v.1.15,2013-01-07 18:41:00,
2013-01-07 12:46:00,50.1,29.6,30.27,WSW,255,1.0,7.0,45,0.00,,,0.00,Wunderground v.1.15,2013-01-07 18:46:00,
2013-01-07 12:51:00,50.5,29.9,30.27,WNW,300,7.0,7.0,45,0.00,,,0.00,Wunderground v.1.15,2013-01-07 18:51:00,
2013-01-07 12:56:00,50.8,30.7,30.27,SW,226,2.0,8.0,46,0.00,,,0.00,Wunderground v.1.15,2013-01-07 18:56:00,
2013-01-07 13:01:00,51.4,30.2,30.26,WNW,295,2.0,4.0,44,0.00,,,0.00,Wunderground v.1.15,2013-01-07 19:01:00,
2013-01-07 13:06:00,51.8,29.4,30.26,WNW,291,3.0,5.0,42,0.00,,,0.00,Wunderground v.1.15,2013-01-07 19:06:00,
2013-01-07 13:11:00,51.6,29.2,30.26,WNW,288,4.0,5.0,42,0.00,,,0.00,Wunderground v.1.15,2013-01-07 19:11:00,
2013-01-07 13:16:00,51.8,28.8,30.25,WNW,290,8.0,12.0,41,0.00,,,0.00,Wunderground v.1.15,2013-01-07 19:16:00,
2013-01-07 13:21:00,51.7,29.3,30.25,West,276,3.0,5.0,42,0.00,,,0.00,Wunderground v.1.15,2013-01-07 19:21:00,
2013-01-07 13:26:00,52.0,29.0,30.25,WSW,245,4.0,6.0,41,0.00,,,0.00,Wunderground v.1.15,2013-01-07 19:26:00,
2013-01-07 13:31:00,52.6,29.5,30.25,WNW,295,4.0,5.0,41,0.00,,,0.00,Wunderground v.1.15,2013-01-07 19:31:00,
2013-01-07 13:36:00,52.8,28.5,30.24,West,276,2.0,5.0,39,0.00,,,0.00,Wunderground v.1.15,2013-01-07 19:36:00,
2013-01-07 13:41:00,52.9,28.6,30.24,NW,309,3.0,7.0,39,0.00,,,0.00,Wunderground v.1.15,2013-01-07 19:41:00,
2013-01-07 13:46:00,53.0,29.3,30.24,West,266,2.0,7.0,40,0.00,,,0.00,Wunderground v.1.15,2013-01-07 19:46:00,
2013-01-07 13:51:00,53.1,29.4,30.23,WNW,289,2.0,5.0,40,0.00,,,0.00,Wunderground v.1.15,2013-01-07 19:51:00,
2013-01-07 13:56:00,53.6,28.6,30.23,WSW,252,2.0,5.0,38,0.00,,,0.00,Wunderground v.1.15,2013-01-07 19:56:00,
2013-01-07 14:01:00,53.7,28.7,30.23,WNW,288,2.0,5.0,38,0.00,,,0.00,Wunderground v.1.15,2013-01-07 20:01:00,
2013-01-07 14:06:00,53.9,28.8,30.23,WNW,301,3.0,5.0,38,0.00,,,0.00,Wunderground v.1.15,2013-01-07 20:06:00,
2013-01-07 14:11:00,53.7,27.4,30.23,West,278,5.0,7.0,36,0.00,,,0.00,Wunderground v.1.15,2013-01-07 20:11:00,
2013-01-07 14:16:00,53.4,27.8,30.23,SSW,199,2.0,7.0,37,0.00,,,0.00,Wunderground v.1.15,2013-01-07 20:16:00,
2013-01-07 14:19:00,53.2,26.9,30.23,WNW,288,4.0,8.0,36,0.00,,,0.00,Wunderground v.1.15,2013-01-07 20:19:00,
2013-01-07 14:24:00,52.8,27.9,30.23,WNW,297,3.0,8.0,38,0.00,,,0.00,Wunderground v.1.15,2013-01-07 20:24:00,
2013-01-07 14:29:00,52.8,27.9,30.22,WSW,243,4.0,8.0,38,0.00,,,0.00,Wunderground v.1.15,2013-01-07 20:29:00,
2013-01-07 14:34:00,52.8,27.9,30.23,NW,304,3.0,7.0,38,0.00,,,0.00,Wunderground v.1.15,2013-01-07 20:34:00,
2013-01-07 14:39:00,52.5,28.2,30.23,WNW,291,4.0,7.0,39,0.00,,,0.00,Wunderground v.1.15,2013-01-07 20:39:00,
2013-01-07 14:44:00,52.8,28.5,30.23,West,274,2.0,6.0,39,0.00,,,0.00,Wunderground v.1.15,2013-01-07 20:44:00,
2013-01-07 14:49:00,53.2,28.2,30.23,WSW,256,1.0,6.0,38,0.00,,,0.00,Wunderground v.1.15,2013-01-07 20:49:00,
2013-01-07 14:54:00,53.6,27.9,30.23,West,262,1.0,5.0,37,0.00,,,0.00,Wunderground v.1.15,2013-01-07 20:54:00,
2013-01-07 14:59:00,53.9,28.2,30.23,WNW,301,4.0,5.0,37,0.00,,,0.00,Wunderground v.1.15,2013-01-07 20:59:00,
2013-01-07 15:04:00,53.4,27.1,30.23,West,281,3.0,9.0,36,0.00,,,0.00,Wunderground v.1.15,2013-01-07 21:04:00,
2013-01-07 15:09:00,52.7,27.1,30.23,West,281,6.0,11.0,37,0.00,,,0.00,Wunderground v.1.15,2013-01-07 21:09:00,
2013-01-07 15:14:00,52.4,27.5,30.23,WNW,295,3.0,8.0,38,0.00,,,0.00,Wunderground v.1.15,2013-01-07 21:14:00,
2013-01-07 15:19:00,52.8,27.9,30.23,WNW,289,5.0,8.0,38,0.00,,,0.00,Wunderground v.1.15,2013-01-07 21:19:00,
2013-01-07 15:24:00,53.1,27.5,30.23,NW,319,5.0,9.0,37,0.00,,,0.00,Wunderground v.1.15,2013-01-07 21:24:00,
2013-01-07 15:29:00,53.1,26.8,30.22,WSW,250,1.0,10.0,36,0.00,,,0.00,Wunderground v.1.15,2013-01-07 21:29:00,
2013-01-07 15:34:00,53.0,26.7,30.22,SW,219,3.0,5.0,36,0.00,,,0.00,Wunderground v.1.15,2013-01-07 21:34:00,
2013-01-07 15:39:00,52.7,25.8,30.22,NW,310,4.0,9.0,35,0.00,,,0.00,Wunderground v.1.15,2013-01-07 21:39:00,
2013-01-07 15:44:00,52.6,27.0,30.22,West,262,2.0,5.0,37,0.00,,,0.00,Wunderground v.1.15,2013-01-07 21:44:00,
2013-01-07 15:49:00,52.9,27.3,30.21,WNW,284,1.0,5.0,37,0.00,,,0.00,Wunderground v.1.15,2013-01-07 21:49:00,
2013-01-07 15:54:00,53.1,26.8,30.21,WNW,301,3.0,6.0,36,0.00,,,0.00,Wunderground v.1.15,2013-01-07 21:54:00,
2013-01-07 15:59:00,53.3,27.0,30.20,WNW,291,3.0,6.0,36,0.00,,,0.00,Wunderground v.1.15,2013-01-07 21:59:00,
2013-01-07 16:04:00,53.4,27.8,30.21,WNW,284,2.0,4.0,37,0.00,,,0.00,Wunderground v.1.15,2013-01-07 22:04:00,
2013-01-07 16:09:00,53.3,27.7,30.21,WNW,288,2.0,5.0,37,0.00,,,0.00,Wunderground v.1.15,2013-01-07 22:09:00,
2013-01-07 16:14:00,53.1,26.8,30.21,NW,305,2.0,5.0,36,0.00,,,0.00,Wunderground v.1.15,2013-01-07 22:14:00,
2013-01-07 16:19:00,52.7,27.1,30.21,West,281,2.0,5.0,37,0.00,,,0.00,Wunderground v.1.15,2013-01-07 22:19:00,
2013-01-07 16:24:00,52.3,26.8,30.20,WNW,291,3.0,4.0,37,0.00,,,0.00,Wunderground v.1.15,2013-01-07 22:24:00,
2013-01-07 16:29:00,51.8,27.0,30.20,WNW,283,1.0,4.0,38,0.00,,,0.00,Wunderground v.1.15,2013-01-07 22:29:00,
2013-01-07 16:34:00,51.5,27.3,30.20,WNW,294,3.0,3.0,39,0.00,,,0.00,Wunderground v.1.15,2013-01-07 22:34:00,
2013-01-07 16:39:00,51.0,26.9,30.20,WNW,300,2.0,5.0,39,0.00,,,0.00,Wunderground v.1.15,2013-01-07 22:39:00,
2013-01-07 16:44:00,50.5,27.0,30.20,WNW,299,2.0,4.0,40,0.00,,,0.00,Wunderground v.1.15,2013-01-07 22:44:00,
2013-01-07 16:49:00,50.3,26.9,30.20,West,263,1.0,4.0,40,0.00,,,0.00,Wunderground v.1.15,2013-01-07 22:49:00,
2013-01-07 16:54:00,49.8,27.0,30.20,SW,218,0.0,2.0,41,0.00,,,0.00,Wunderground v.1.15,2013-01-07 22:54:00,
2013-01-07 16:59:00,49.3,27.2,30.20,WSW,241,1.0,2.0,42,0.00,,,0.00,Wunderground v.1.15,2013-01-07 22:59:00,
2013-01-07 17:04:00,48.6,27.1,30.20,WSW,239,0.0,2.0,43,0.00,,,0.00,Wunderground v.1.15,2013-01-07 23:04:00,
2013-01-07 17:08:00,47.9,27.6,30.20,WSW,247,1.0,2.0,45,0.00,,,0.00,Wunderground v.1.15,2013-01-07 23:08:00,
2013-01-07 17:14:00,47.3,27.5,30.20,WSW,242,0.0,2.0,46,0.00,,,0.00,Wunderground v.1.15,2013-01-07 23:14:00,
2013-01-07 17:19:00,46.7,27.5,30.20,WSW,240,0.0,2.0,47,0.00,,,0.00,Wunderground v.1.15,2013-01-07 23:19:00,
2013-01-07 17:24:00,46.1,27.5,30.19,WSW,241,0.0,0.0,48,0.00,,,0.00,Wunderground v.1.15,2013-01-07 23:24:00,
2013-01-07 17:29:00,45.3,26.7,30.19,WSW,240,0.0,0.0,48,0.00,,,0.00,Wunderground v.1.15,2013-01-07 23:29:00,
2013-01-07 17:34:00,44.3,26.3,30.19,WSW,240,0.0,0.0,49,0.00,,,0.00,Wunderground v.1.15,2013-01-07 23:34:00,
2013-01-07 17:39:00,43.4,27.4,30.19,WSW,240,0.0,0.0,53,0.00,,,0.00,Wunderground v.1.15,2013-01-07 23:39:00,
2013-01-07 17:44:00,42.8,27.3,30.19,WSW,240,0.0,0.0,54,0.00,,,0.00,Wunderground v.1.15,2013-01-07 23:44:00,
2013-01-07 17:49:00,42.2,26.7,30.19,WSW,240,0.0,0.0,54,0.00,,,0.00,Wunderground v.1.15,2013-01-07 23:49:00,
2013-01-07 17:54:00,41.5,27.8,30.19,WSW,240,0.0,0.0,58,0.00,,,0.00,Wunderground v.1.15,2013-01-07 23:54:00,
2013-01-07 17:59:00,40.6,27.4,30.20,WSW,240,0.0,0.0,59,0.00,,,0.00,Wunderground v.1.15,2013-01-07 23:59:00,
2013-01-07 18:04:00,40.0,27.2,30.20,SSE,150,0.0,0.0,60,0.00,,,0.00,Wunderground v.1.15,2013-01-08 00:04:00,
2013-01-07 18:09:00,39.5,26.8,30.20,SSE,149,0.0,0.0,60,0.00,,,0.00,Wunderground v.1.15,2013-01-08 00:09:00,
2013-01-07 18:14:00,38.9,27.4,30.20,SSE,150,0.0,0.0,63,0.00,,,0.00,Wunderground v.1.15,2013-01-08 00:14:00,
2013-01-07 18:19:00,38.5,27.7,30.20,SSE,150,0.0,0.0,65,0.00,,,0.00,Wunderground v.1.15,2013-01-08 00:19:00,
2013-01-07 18:24:00,38.2,28.2,30.20,SSE,150,0.0,0.0,67,0.00,,,0.00,Wunderground v.1.15,2013-01-08 00:24:00,
2013-01-07 18:29:00,37.7,28.1,30.21,SSE,150,0.0,0.0,68,0.00,,,0.00,Wunderground v.1.15,2013-01-08 00:29:00,
2013-01-07 18:34:00,37.5,27.9,30.20,SSE,150,0.0,0.0,68,0.00,,,0.00,Wunderground v.1.15,2013-01-08 00:34:00,
2013-01-07 18:39:00,36.9,27.7,30.20,SSE,150,0.0,0.0,69,0.00,,,0.00,Wunderground v.1.15,2013-01-08 00:39:00,
2013-01-07 18:44:00,36.5,27.6,30.20,SSE,150,0.0,0.0,70,0.00,,,0.00,Wunderground v.1.15,2013-01-08 00:44:00,
2013-01-07 18:49:00,36.1,27.9,30.20,SSE,150,0.0,0.0,72,0.00,,,0.00,Wunderground v.1.15,2013-01-08 00:49:00,
2013-01-07 18:54:00,35.7,27.6,30.21,SSE,150,0.0,0.0,72,0.00,,,0.00,Wunderground v.1.15,2013-01-08 00:54:00,
2013-01-07 18:59:00,35.3,27.5,30.21,SSE,150,0.0,0.0,73,0.00,,,0.00,Wunderground v.1.15,2013-01-08 00:59:00,
2013-01-07 19:04:00,34.9,27.5,30.20,SSE,150,0.0,0.0,74,0.00,,,0.00,Wunderground v.1.15,2013-01-08 01:04:00,
2013-01-07 19:09:00,34.9,27.8,30.20,SSE,150,0.0,0.0,75,0.00,,,0.00,Wunderground v.1.15,2013-01-08 01:09:00,
2013-01-07 19:14:00,35.0,27.9,30.20,SSE,150,0.0,0.0,75,0.00,,,0.00,Wunderground v.1.15,2013-01-08 01:14:00,
2013-01-07 19:19:00,34.9,27.8,30.20,SSE,150,0.0,0.0,75,0.00,,,0.00,Wunderground v.1.15,2013-01-08 01:19:00,
2013-01-07 19:24:00,34.8,27.7,30.20,SSE,162,0.0,0.0,75,0.00,,,0.00,Wunderground v.1.15,2013-01-08 01:24:00,
2013-01-07 19:29:00,34.7,27.6,30.20,SW,217,0.0,0.0,75,0.00,,,0.00,Wunderground v.1.15,2013-01-08 01:29:00,
2013-01-07 19:34:00,34.7,27.9,30.20,SW,217,0.0,0.0,76,0.00,,,0.00,Wunderground v.1.15,2013-01-08 01:34:00,
2013-01-07 19:39:00,34.6,27.8,30.20,SW,217,0.0,0.0,76,0.00,,,0.00,Wunderground v.1.15,2013-01-08 01:39:00,
2013-01-07 19:44:00,34.5,27.7,30.20,SW,235,0.0,0.0,76,0.00,,,0.00,Wunderground v.1.15,2013-01-08 01:44:00,
2013-01-07 19:49:00,34.4,27.6,30.20,SW,233,0.0,0.0,76,0.00,,,0.00,Wunderground v.1.15,2013-01-08 01:49:00,
2013-01-07 19:54:00,34.3,27.5,30.20,SW,233,0.0,0.0,76,0.00,,,0.00,Wunderground v.1.15,2013-01-08 01:54:00,
2013-01-07 19:59:00,34.1,27.3,30.20,SW,233,0.0,0.0,76,0.00,,,0.00,Wunderground v.1.15,2013-01-08 01:59:00,
2013-01-07 20:04:00,34.0,27.5,30.20,SW,233,0.0,0.0,77,0.00,,,0.00,Wunderground v.1.15,2013-01-08 02:04:00,
2013-01-07 20:09:00,33.8,27.4,30.20,SW,233,0.0,0.0,77,0.00,,,0.00,Wunderground v.1.15,2013-01-08 02:09:00,
2013-01-07 20:14:00,33.5,27.1,30.20,SW,233,0.0,0.0,77,0.00,,,0.00,Wunderground v.1.15,2013-01-08 02:14:00,
2013-01-07 20:19:00,33.3,26.9,30.20,SW,233,0.0,0.0,77,0.00,,,0.00,Wunderground v.1.15,2013-01-08 02:19:00,
2013-01-07 20:24:00,33.5,27.4,30.21,SW,233,0.0,0.0,78,0.00,,,0.00,Wunderground v.1.15,2013-01-08 02:24:00,
2013-01-07 20:29:00,33.6,27.2,30.21,SW,233,0.0,0.0,77,0.00,,,0.00,Wunderground v.1.15,2013-01-08 02:29:00,
2013-01-07 20:34:00,33.4,27.6,30.21,SW,233,0.0,0.0,79,0.00,,,0.00,Wunderground v.1.15,2013-01-08 02:34:00,
2013-01-07 20:39:00,33.1,27.6,30.20,SW,233,0.0,0.0,80,0.00,,,0.00,Wunderground v.1.15,2013-01-08 02:39:00,
2013-01-07 20:44:00,33.0,27.8,30.20,SW,233,0.0,0.0,81,0.00,,,0.00,Wunderground v.1.15,2013-01-08 02:44:00,
2013-01-07 20:49:00,32.9,27.7,30.20,SSW,195,0.0,0.0,81,0.00,,,0.00,Wunderground v.1.15,2013-01-08 02:49:00,
2013-01-07 20:54:00,33.0,27.8,30.20,SE,131,1.0,2.0,81,0.00,,,0.00,Wunderground v.1.15,2013-01-08 02:54:00,
2013-01-07 20:59:00,33.2,28.0,30.20,SE,134,0.0,2.0,81,0.00,,,0.00,Wunderground v.1.15,2013-01-08 02:59:00,
2013-01-07 21:04:00,33.4,27.6,30.20,SE,134,0.0,1.0,79,0.00,,,0.00,Wunderground v.1.15,2013-01-08 03:04:00,
2013-01-07 21:09:00,33.4,27.6,30.20,SE,134,0.0,1.0,79,0.00,,,0.00,Wunderground v.1.15,2013-01-08 03:09:00,
2013-01-07 21:14:00,33.3,27.8,30.20,SE,134,0.0,0.0,80,0.00,,,0.00,Wunderground v.1.15,2013-01-08 03:14:00,
2013-01-07 21:19:00,33.1,28.2,30.19,SE,134,0.0,0.0,82,0.00,,,0.00,Wunderground v.1.15,2013-01-08 03:19:00,
2013-01-07 21:24:00,32.8,27.9,30.19,SE,134,0.0,0.0,82,0.00,,,0.00,Wunderground v.1.15,2013-01-08 03:24:00,
2013-01-07 21:29:00,32.8,28.2,30.19,SE,134,0.0,0.0,83,0.00,,,0.00,Wunderground v.1.15,2013-01-08 03:29:00,
2013-01-07 21:34:00,32.7,28.1,30.20,SE,134,0.0,0.0,83,0.00,,,0.00,Wunderground v.1.15,2013-01-08 03:34:00,
2013-01-07 21:39:00,32.4,27.8,30.19,SE,134,0.0,0.0,83,0.00,,,0.00,Wunderground v.1.15,2013-01-08 03:39:00,
2013-01-07 21:44:00,32.1,27.8,30.19,SE,134,0.0,0.0,84,0.00,,,0.00,Wunderground v.1.15,2013-01-08 03:44:00,
2013-01-07 21:49:00,31.9,27.6,30.19,SE,134,0.0,0.0,84,0.00,,,0.00,Wunderground v.1.15,2013-01-08 03:49:00,
2013-01-07 21:54:00,31.8,27.8,30.18,SE,134,0.0,0.0,85,0.00,,,0.00,Wunderground v.1.15,2013-01-08 03:54:00,
2013-01-07 21:59:00,31.6,27.6,30.18,SE,134,0.0,0.0,85,0.00,,,0.00,Wunderground v.1.15,2013-01-08 03:59:00,
2013-01-07 22:04:00,31.5,27.8,30.18,SE,134,0.0,0.0,86,0.00,,,0.00,Wunderground v.1.15,2013-01-08 04:04:00,
2013-01-07 22:09:00,31.4,27.4,30.18,SE,134,0.0,0.0,85,0.00,,,0.00,Wunderground v.1.15,2013-01-08 04:09:00,
2013-01-07 22:14:00,31.3,27.6,30.17,SE,134,0.0,0.0,86,0.00,,,0.00,Wunderground v.1.15,2013-01-08 04:14:00,
2013-01-07 22:19:00,31.2,27.2,30.18,SE,134,0.0,0.0,85,0.00,,,0.00,Wunderground v.1.15,2013-01-08 04:19:00,
2013-01-07 22:24:00,31.2,27.5,30.18,SE,134,0.0,0.0,86,0.00,,,0.00,Wunderground v.1.15,2013-01-08 04:24:00,
2013-01-07 22:29:00,31.3,27.6,30.18,SE,132,0.0,0.0,86,0.00,,,0.00,Wunderground v.1.15,2013-01-08 04:29:00,
2013-01-07 22:34:00,31.2,27.2,30.18,SE,132,0.0,0.0,85,0.00,,,0.00,Wunderground v.1.15,2013-01-08 04:34:00,
2013-01-07 22:39:00,30.9,26.9,30.18,SE,127,1.0,2.0,85,0.00,,,0.00,Wunderground v.1.15,2013-01-08 04:39:00,
2013-01-07 22:44:00,30.7,27.0,30.18,SE,134,0.0,1.0,86,0.00,,,0.00,Wunderground v.1.15,2013-01-08 04:44:00,
2013-01-07 22:49:00,30.6,26.6,30.18,SE,134,0.0,1.0,85,0.00,,,0.00,Wunderground v.1.15,2013-01-08 04:49:00,
2013-01-07 22:54:00,30.3,26.0,30.18,SSW,212,0.0,1.0,84,0.00,,,0.00,Wunderground v.1.15,2013-01-08 04:54:00,
2013-01-07 22:59:00,30.0,25.8,30.17,SSW,213,0.0,1.0,84,0.00,,,0.00,Wunderground v.1.15,2013-01-08 04:59:00,
2013-01-07 23:00:00,29.9,25.7,30.17,SSW,212,0.0,0.0,84,0.00,,,0.00,Wunderground v.1.15,2013-01-08 05:00:00,
2013-01-07 23:02:00,29.8,25.6,30.17,SSW,212,0.0,0.0,84,0.00,,,0.00,Wunderground v.1.15,2013-01-08 05:02:00,
2013-01-07 23:03:00,29.8,25.6,30.17,SSW,213,0.0,0.0,84,0.00,,,0.00,Wunderground v.1.15,2013-01-08 05:03:00,
2013-01-07 23:08:00,29.6,25.6,30.17,SSW,212,0.0,1.0,85,0.00,,,0.00,Wunderground v.1.15,2013-01-08 05:08:00,
2013-01-07 23:13:00,29.5,25.5,30.18,SW,229,0.0,2.0,85,0.00,,,0.00,Wunderground v.1.15,2013-01-08 05:13:00,
2013-01-07 23:18:00,29.3,25.6,30.18,SW,229,0.0,2.0,86,0.00,,,0.00,Wunderground v.1.15,2013-01-08 05:18:00,
2013-01-07 23:23:00,29.3,25.9,30.18,SE,134,0.0,0.0,87,0.00,,,0.00,Wunderground v.1.15,2013-01-08 05:23:00,
2013-01-07 23:28:00,29.2,25.5,30.18,SE,134,0.0,0.0,86,0.00,,,0.00,Wunderground v.1.15,2013-01-08 05:28:00,
2013-01-07 23:33:00,28.9,25.2,30.18,South,179,0.0,0.0,86,0.00,,,0.00,Wunderground v.1.15,2013-01-08 05:33:00,
2013-01-07 23:38:00,28.7,25.3,30.18,South,180,0.0,0.0,87,0.00,,,0.00,Wunderground v.1.15,2013-01-08 05:38:00,
2013-01-07 23:43:00,28.6,25.5,30.18,West,260,0.0,1.0,88,0.00,,,0.00,Wunderground v.1.15,2013-01-08 05:43:00,
2013-01-07 23:48:00,28.3,25.2,30.17,West,260,0.0,1.0,88,0.00,,,0.00,Wunderground v.1.15,2013-01-08 05:48:00,
2013-01-07 23:53:00,28.1,25.3,30.17,West,260,0.0,0.0,89,0.00,,,0.00,Wunderground v.1.15,2013-01-08 05:53:00,
2013-01-07 23:58:00,28.0,25.2,30.17,West,259,0.0,0.0,89,0.00,,,0.00,Wunderground v.1.15,2013-01-08 05:58:00,